Flight Track Log - Related Links

Times and Time Zones

All times are in EDT time to prevent confusion due to time zone crossing. See the SWA311 flight status page for this flight to view local times or setup timezone preferences in your user account.

Time Position Orientation Groundspeed Altitude Reporting Facility
EDT Latitude Longitude Course Direction KTS MPH feet Rate Location/Type
Fri 01:37:02 PM 37.7500 -122.2667 332° Northwest 181 208 1,800  Level Northern Cal TRACON
Fri 01:38:02 PM 37.8000 -122.3000 332° Northwest 226 260 4,300 2,211 Climbing Northern Cal TRACON
Fri 01:38:18 PM 37.8014 -122.2933 75° East 211 243 4,600 2,231 Climbing Oakland Center
Fri 01:39:20 PM 37.8650 -122.2681 17° North 236 272 7,200 2,976 Climbing Oakland Center
Fri 01:40:21 PM 37.8858 -122.1497 77° East 290 334 10,700 3,049 Climbing Oakland Center
Fri 01:41:22 PM 37.9081 -122.0322 76° East 339 390 13,400 2,878 Climbing Oakland Center
Fri 01:42:24 PM 37.9294 -121.9064 78° East 362 417 16,600 2,780 Climbing Oakland Center
Fri 01:43:25 PM 37.9511 -121.7747 78° East 381 438 19,100 2,488 Climbing Oakland Center
Fri 01:44:27 PM 37.9731 -121.6350 79° East 401 461 21,700 2,488 Climbing Oakland Center
Fri 01:45:28 PM 37.9992 -121.4775 78° East 416 479 24,200 2,293 Climbing Oakland Center
Fri 01:46:30 PM 38.0231 -121.3297 78° East 426 490 26,400 2,000 Climbing Oakland Center
Fri 01:47:31 PM 38.0475 -121.1783 78° East 438 504 28,300 1,756 Climbing Oakland Center
Fri 01:48:33 PM 38.0717 -121.0258 79° East 445 512 30,000 1,902 Climbing Oakland Center
Fri 01:49:34 PM 38.0936 -120.8697 80° East 450 518 32,200 2,195 Climbing Oakland Center
Fri 01:50:36 PM 38.1178 -120.6864 80° East 442 509 34,500 1,935 Climbing Oakland Center
Fri 01:51:38 PM 38.1378 -120.5381 80° East 432 497 36,200 1,220 Climbing Oakland Center
Fri 01:52:39 PM 38.1569 -120.3922 80° East 423 487 37,000 390 Climbing Oakland Center
Fri 01:53:41 PM 38.1767 -120.2442 80° East 425 489 37,000  Level Oakland Center
Fri 01:54:42 PM 38.1953 -120.0956 81° East 427 491 37,000  Level Oakland Center
Fri 01:55:44 PM 38.2144 -119.9481 81° East 426 490 37,000  Level Oakland Center
Fri 01:56:45 PM 38.2325 -119.7983 81° East 428 493 37,000  Level Oakland Center
Fri 01:57:47 PM 38.2522 -119.6497 80° East 427 491 37,000  Level Oakland Center
Fri 01:58:48 PM 38.2739 -119.4706 81° East 427 491 37,000  Level Oakland Center
Fri 01:59:50 PM 38.2903 -119.3333 81° East 432 497 37,000  Level Oakland Center
Fri 02:00:51 PM 38.3083 -119.1831 81° East 431 496 37,000  Level Oakland Center
Fri 02:01:53 PM 38.3272 -119.0325 81° East 431 496 37,000  Level Oakland Center
Fri 02:02:54 PM 38.3492 -118.8483 81° East 437 503 37,000  Level Oakland Center
Fri 02:03:56 PM 38.3658 -118.6969 82° East 435 501 37,000  Level Oakland Center
Fri 02:04:57 PM 38.3833 -118.5458 82° East 433 498 37,000  Level Oakland Center
Fri 02:05:59 PM 38.4003 -118.3942 82° East 434 499 37,000  Level Oakland Center
Fri 02:07:01 PM 38.4178 -118.2439 82° East 432 497 37,000  Level Oakland Center
Fri 02:08:02 PM 38.4369 -118.0728 82° East 433 498 37,000  Level Oakland Center
Fri 02:09:04 PM 38.4533 -117.9219 82° East 429 494 37,000  Level Oakland Center
Fri 02:10:05 PM 38.4694 -117.7700 82° East 430 495 37,000  Level Oakland Center
Fri 02:11:07 PM 38.4856 -117.6167 82° East 432 497 37,000  Level Oakland Center
Fri 02:12:08 PM 38.5017 -117.4644 82° East 431 496 37,000  Level Oakland Center
Fri 02:13:10 PM 38.5175 -117.3117 82° East 431 496 37,000  Level Oakland Center
Fri 02:14:25 PM 38.5064 -117.1219 94° East 444 511 37,000  Level Salt Lake Center
Fri 02:15:13 PM 38.4961 -116.9958 96° East 444 511 37,000  Level Oakland Center
Fri 02:16:15 PM 38.4831 -116.8381 96° East 445 512 37,000  Level Oakland Center
Fri 02:17:16 PM 38.4692 -116.6800 96° East 445 512 37,000  Level Oakland Center
Fri 02:17:31 PM 38.4633 -116.6183 97° East 442 509 37,000  Level Salt Lake Center
Fri 02:18:33 PM 38.4500 -116.4617 96° East 442 509 37,000  Level Salt Lake Center
Fri 02:19:19 PM 38.4392 -116.3358 96° East 444 511 37,000  Level Oakland Center
Fri 02:20:21 PM 38.4247 -116.1808 97° East 441 507 37,000  Level Oakland Center
Fri 02:21:22 PM 38.4103 -116.0250 97° East 441 507 37,000  Level Oakland Center
Fri 02:21:39 PM 38.4081 -115.9936 95° East 443 510 37,000  Level Salt Lake Center
Fri 02:22:41 PM 38.3931 -115.8356 97° East 448 516 37,000  Level Salt Lake Center
Fri 02:23:43 PM 38.3756 -115.6472 97° East 446 513 37,000  Level Salt Lake Center
Fri 02:24:45 PM 38.3603 -115.4906 97° East 445 512 37,000  Level Salt Lake Center
Fri 02:25:47 PM 38.3439 -115.3256 97° East 450 518 37,000  Level Salt Lake Center
Fri 02:26:49 PM 38.3281 -115.1681 97° East 448 516 37,000  Level Salt Lake Center
Fri 02:27:51 PM 38.3131 -115.0100 97° East 450 518 37,000  Level Salt Lake Center
Fri 02:28:53 PM 38.2969 -114.8522 97° East 450 518 37,000  Level Salt Lake Center
Fri 02:29:55 PM 38.2811 -114.6947 97° East 450 518 37,000  Level Salt Lake Center
Fri 02:30:57 PM 38.2650 -114.5347 97° East 455 524 37,000 48 Level Salt Lake Center
Fri 02:31:59 PM 38.2517 -114.3447 95° East 451 519 37,100 387 Climbing Salt Lake Center
Fri 02:33:01 PM 38.2692 -114.1792 82° East 466 536 37,800 774 Climbing Salt Lake Center
Fri 02:34:03 PM 38.2828 -114.0128 84° East 472 543 38,700 581 Climbing Salt Lake Center
Fri 02:35:05 PM 38.2964 -113.8461 84° East 475 547 39,000 145 Climbing Salt Lake Center
Fri 02:36:07 PM 38.3069 -113.6794 85° East 471 542 39,000  Level Salt Lake Center
Fri 02:37:09 PM 38.2675 -113.5189 107° East 477 549 39,000  Level Salt Lake Center
Fri 02:38:11 PM 38.2206 -113.3594 111° Southeast 480 552 39,000  Level Salt Lake Center
Fri 02:39:13 PM 38.1653 -113.1689 110° East 478 550 39,000  Level Salt Lake Center
Fri 02:40:15 PM 38.1178 -113.0128 111° Southeast 474 545 39,000  Level Salt Lake Center
Fri 02:41:17 PM 38.0711 -112.8528 110° East 480 552 39,000  Level Salt Lake Center
Fri 02:42:19 PM 38.0225 -112.6933 111° Southeast 481 554 39,000  Level Salt Lake Center
Fri 02:43:21 PM 37.9747 -112.5347 111° Southeast 480 552 39,000  Level Salt Lake Center
Fri 02:44:22 PM 37.9258 -112.3756 111° Southeast 481 554 39,000  Level Salt Lake Center
Fri 02:45:24 PM 37.8769 -112.2156 111° Southeast 484 557 39,000  Level Salt Lake Center
Fri 02:46:26 PM 37.8272 -112.0561 112° Southeast 487 560 39,000  Level Salt Lake Center
Fri 02:47:28 PM 37.7692 -111.8661 111° Southeast 483 556 39,000  Level Salt Lake Center
Fri 02:48:30 PM 37.7206 -111.7100 111° Southeast 480 552 39,000  Level Salt Lake Center
Fri 02:49:32 PM 37.6703 -111.5528 112° Southeast 481 554 39,000  Level Salt Lake Center
Fri 02:50:34 PM 37.6228 -111.3981 111° Southeast 477 549 39,000  Level Salt Lake Center
Fri 02:51:03 PM 37.6014 -111.3364 114° Southeast 473 544 39,000  Level Denver Center
Fri 02:52:05 PM 37.5439 -111.1517 111° Southeast 472 543 39,000  Level Denver Center
Fri 02:53:18 PM 37.4950 -110.9986 112° Southeast 471 542 39,000  Level Denver Center
Fri 02:54:21 PM 37.4356 -110.8142 112° Southeast 473 544 39,000  Level Denver Center
Fri 02:55:22 PM 37.3856 -110.6628 113° Southeast 470 541 39,000  Level Denver Center
Fri 02:56:24 PM 37.3369 -110.5108 112° Southeast 469 540 39,000  Level Denver Center
Fri 02:57:25 PM 37.2878 -110.3597 112° Southeast 469 540 39,000  Level Denver Center
Fri 02:58:27 PM 37.2381 -110.2108 113° Southeast 466 536 39,000  Level Denver Center
Fri 02:59:29 PM 37.1819 -110.0358 112° Southeast 467 537 39,000  Level Denver Center
Fri 03:00:31 PM 37.1339 -109.8936 113° Southeast 465 535 39,000  Level Denver Center
Fri 03:01:32 PM 37.0783 -109.7247 112° Southeast 470 541 39,000  Level Denver Center
Fri 03:02:34 PM 37.0294 -109.5817 113° Southeast 468 539 39,000  Level Denver Center
Fri 03:03:36 PM 36.9803 -109.4386 113° Southeast 468 539 39,000  Level Denver Center
Fri 03:04:37 PM 36.9236 -109.2714 113° Southeast 468 539 39,000  Level Denver Center
Fri 03:05:39 PM 36.8750 -109.1275 113° Southeast 468 539 39,000  Level Denver Center
Fri 03:06:41 PM 36.8178 -108.9594 113° Southeast 469 540 39,000  Level Denver Center
Fri 03:07:42 PM 36.7672 -108.8142 113° Southeast 473 544 39,000  Level Denver Center
Fri 03:08:44 PM 36.7083 -108.6431 113° Southeast 479 551 39,000  Level Denver Center
Fri 03:09:46 PM 36.6578 -108.4975 113° Southeast 477 549 39,000  Level Denver Center
Fri 03:10:47 PM 36.6069 -108.3500 113° Southeast 479 551 39,000  Level Denver Center
Fri 03:11:49 PM 36.5444 -108.1756 114° Southeast 489 563 39,000  Level Denver Center
Fri 03:12:51 PM 36.4928 -108.0283 114° Southeast 486 559 39,000  Level Denver Center
Fri 03:13:53 PM 36.4311 -107.8567 114° Southeast 486 559 39,000  Level Denver Center
Fri 03:14:54 PM 36.3781 -107.7086 114° Southeast 487 560 39,000  Level Denver Center
Fri 03:15:32 PM 36.3433 -107.6111 114° Southeast 486 559 39,000  Level Albuquerque Center
Fri 03:16:34 PM 36.2892 -107.4647 115° Southeast 486 559 39,000  Level Albuquerque Center
Fri 03:17:36 PM 36.2278 -107.2933 114° Southeast 487 560 39,000  Level Albuquerque Center
Fri 03:18:38 PM 36.1733 -107.1447 114° Southeast 490 564 39,000  Level Albuquerque Center
Fri 03:19:40 PM 36.1178 -106.9914 114° Southeast 488 562 39,000  Level Albuquerque Center
Fri 03:20:42 PM 36.0611 -106.8372 114° Southeast 490 564 39,000  Level Albuquerque Center
Fri 03:21:44 PM 36.0056 -106.6831 114° Southeast 490 564 39,000  Level Albuquerque Center
Fri 03:22:45 PM 35.9500 -106.5308 114° Southeast 486 559 39,000  Level Albuquerque Center
Fri 03:23:47 PM 35.8803 -106.3419 114° Southeast 486 559 39,000  Level Albuquerque Center
Fri 03:24:49 PM 35.8250 -106.1953 115° Southeast 489 563 39,000  Level Albuquerque Center
Fri 03:25:51 PM 35.7664 -106.0406 115° Southeast 495 570 39,000  Level Albuquerque Center
Fri 03:26:53 PM 35.7081 -105.8875 115° Southeast 493 567 39,000  Level Albuquerque Center
Fri 03:27:55 PM 35.6511 -105.7364 115° Southeast 488 562 39,000  Level Albuquerque Center
Fri 03:28:57 PM 35.5903 -105.5753 115° Southeast 492 566 39,000  Level Albuquerque Center
Fri 03:29:59 PM 35.5294 -105.4244 116° Southeast 490 564 39,000  Level Albuquerque Center
Fri 03:31:01 PM 35.4608 -105.2456 115° Southeast 492 566 39,000  Level Albuquerque Center
Fri 03:32:03 PM 35.4014 -105.0925 115° Southeast 492 566 39,000  Level Albuquerque Center
Fri 03:33:04 PM 35.3436 -104.9389 115° Southeast 494 568 39,000  Level Albuquerque Center
Fri 03:34:06 PM 35.2825 -104.7864 116° Southeast 495 570 39,000  Level Albuquerque Center
Fri 03:35:08 PM 35.2225 -104.6344 116° Southeast 494 568 39,000  Level Albuquerque Center
Fri 03:36:10 PM 35.1578 -104.4656 115° Southeast 492 566 39,000  Level Albuquerque Center
Fri 03:37:12 PM 35.0975 -104.3150 116° Southeast 495 570 39,000  Level Albuquerque Center
Fri 03:38:14 PM 35.0333 -104.1589 117° Southeast 497 572 39,000  Level Albuquerque Center
Fri 03:39:16 PM 34.9736 -104.0086 116° Southeast 493 567 39,000  Level Albuquerque Center
Fri 03:40:18 PM 34.9136 -103.8583 116° Southeast 493 567 39,000  Level Albuquerque Center
Fri 03:41:20 PM 34.8531 -103.7089 116° Southeast 490 564 39,000  Level Albuquerque Center
Fri 03:42:22 PM 34.7922 -103.5592 116° Southeast 490 564 39,000  Level Albuquerque Center
Fri 03:43:24 PM 34.7208 -103.3836 116° Southeast 493 567 39,000  Level Albuquerque Center
Fri 03:44:26 PM 34.6594 -103.2344 117° Southeast 490 564 39,000  Level Albuquerque Center
Fri 03:45:27 PM 34.5981 -103.0856 117° Southeast 489 563 39,000  Level Albuquerque Center
Fri 03:46:29 PM 34.5361 -102.9375 117° Southeast 488 562 39,000  Level Albuquerque Center
Fri 03:47:32 PM 34.4753 -102.8072 120° Southeast 489 563 39,000  Level Albuquerque Center
Fri 03:48:34 PM 34.3758 -102.6550 128° Southeast 483 556 39,000  Level Albuquerque Center
Fri 03:49:36 PM 34.2933 -102.5283 128° Southeast 481 554 39,000  Level Albuquerque Center
Fri 03:50:38 PM 34.2058 -102.3956 129° Southeast 482 555 39,000  Level Albuquerque Center
Fri 03:51:40 PM 34.1169 -102.2725 131° Southeast 485 558 39,000  Level Albuquerque Center
Fri 03:51:56 PM 34.0942 -102.2586 153° Southeast 484 557 39,000  Level Fort Worth Center
Fri 03:52:56 PM 33.9747 -102.1619 146° Southeast 472 543 39,000  Level Fort Worth Center
Fri 03:53:56 PM 33.8794 -102.0842 146° Southeast 465 535 39,000  Level Fort Worth Center
Fri 03:54:56 PM 33.7639 -101.9931 147° Southeast 464 534 39,000  Level Fort Worth Center
Fri 03:55:56 PM 33.6689 -101.9106 144° Southeast 469 540 39,000  Level Fort Worth Center
Fri 03:56:56 PM 33.5614 -101.8256 147° Southeast 464 534 39,000  Level Fort Worth Center
Fri 03:57:56 PM 33.4414 -101.7297 146° Southeast 474 545 39,000  Level Fort Worth Center
Fri 03:58:56 PM 33.3378 -101.6478 147° Southeast 467 537 39,000  Level Fort Worth Center
Fri 03:59:56 PM 33.2303 -101.5606 146° Southeast 454 522 39,000  Level Fort Worth Center
Fri 04:00:56 PM 33.1264 -101.4764 146° Southeast 454 522 39,000  Level Fort Worth Center
Fri 04:01:56 PM 33.0164 -101.3944 148° Southeast 459 528 39,000  Level Fort Worth Center
Fri 04:02:56 PM 32.9147 -101.3133 146° Southeast 453 521 39,000  Level Fort Worth Center
Fri 04:03:56 PM 32.8086 -101.2272 146° Southeast 453 521 39,000  Level Fort Worth Center
Fri 04:04:56 PM 32.6964 -101.1458 149° Southeast 464 534 39,000  Level Fort Worth Center
Fri 04:05:56 PM 32.6006 -101.0703 146° Southeast 464 534 39,000  Level Fort Worth Center
Fri 04:06:56 PM 32.4922 -100.9847 146° Southeast 464 534 39,000  Level Fort Worth Center
Fri 04:07:56 PM 32.3861 -100.9017 147° Southeast 464 534 39,000 -50 Level Fort Worth Center
Fri 04:08:56 PM 32.2797 -100.8214 147° Southeast 464 534 38,900 -550 Descending Fort Worth Center
Fri 04:09:56 PM 32.1756 -100.7392 146° Southeast 464 534 37,900 -950 Descending Fort Worth Center
Fri 04:10:56 PM 32.0711 -100.6592 147° Southeast 459 528 37,000 -450 Descending Fort Worth Center
Fri 04:11:56 PM 31.9667 -100.5797 147° Southeast 454 522 37,000  Level Fort Worth Center
Fri 04:12:56 PM 31.8603 -100.4978 147° Southeast 454 522 37,000 -361 Level Fort Worth Center
Fri 04:14:59 PM 31.6444 -100.3314 147° Southeast 453 521 35,900 -1,135 Descending Houston Center
Fri 04:16:01 PM 31.5400 -100.2528 147° Southeast 447 514 33,500 -2,177 Descending Houston Center
Fri 04:17:03 PM 31.4383 -100.1756 147° Southeast 436 502 31,400 -2,177 Descending Houston Center
Fri 04:18:05 PM 31.3236 -100.0811 145° Southeast 424 488 29,000 -1,161 Descending Houston Center
Fri 04:19:07 PM 31.2669 -99.9575 118° Southeast 433 498 29,000 -48 Level Houston Center
Fri 04:20:09 PM 31.2131 -99.8219 115° Southeast 453 521 28,900 -532 Descending Houston Center
Fri 04:21:11 PM 31.1692 -99.6797 110° East 466 536 27,900 -968 Descending Houston Center
Fri 04:22:13 PM 31.1303 -99.5364 108° East 462 532 26,900 -960 Descending Houston Center
Fri 04:23:16 PM 31.0914 -99.3936 108° East 462 532 25,900 -960 Descending Houston Center
Fri 04:24:18 PM 31.0517 -99.2531 108° East 457 526 24,900 -1,065 Descending Houston Center
Fri 04:25:20 PM 31.0072 -99.0917 108° East 450 518 23,700 -1,065 Descending Houston Center
Fri 04:26:22 PM 30.9686 -98.9564 108° East 441 507 22,700 -968 Descending Houston Center
Fri 04:27:24 PM 30.9319 -98.8222 108° East 432 497 21,700 -1,113 Descending Houston Center
Fri 04:28:26 PM 30.8950 -98.6903 108° East 427 491 20,400 -1,790 Descending Houston Center
Fri 04:29:28 PM 30.8528 -98.5431 108° East 411 473 18,000 -2,177 Descending Houston Center
Fri 04:30:30 PM 30.8175 -98.4194 108° East 401 461 15,900 -2,032 Descending Houston Center
Fri 04:31:32 PM 30.7839 -98.3019 108° East 387 445 13,800 -1,968 Descending Houston Center
Fri 04:32:35 PM 30.7514 -98.1867 108° East 377 434 11,800 -1,810 Descending Houston Center
Fri 04:33:38 PM 30.7192 -98.0767 109° East 362 417 10,000 -1,258 Descending Houston Center
Fri 04:34:39 PM 30.6667 -97.9928 126° Southeast 326 375 9,200 -1,024 Descending Houston Center
Fri 04:35:41 PM 30.6194 -97.9158 125° Southeast 300 345 7,900 -1,440 Descending Houston Center
Fri 04:36:44 PM 30.5472 -97.8533 143° Southeast 280 322 6,200 -1,306 Descending Houston Center
Fri 04:37:45 PM 30.4825 -97.8100 150° Southeast 271 312 5,200 -1,073 Descending Houston Center
Fri 04:38:47 PM 30.4225 -97.7689 149° Southeast 256 295 4,000 -1,016 Descending Houston Center
Fri 04:39:49 PM 30.3647 -97.7297 150° Southeast 246 283 3,100 -774 Descending Houston Center
Fri 04:40:51 PM 30.3142 -97.6950 149° Southeast 230 265 2,400 -677 Descending Houston Center
Fri 04:41:53 PM 30.2722 -97.6792 162° South 189 217 1,700 -624 Descending Houston Center
Fri 04:42:56 PM 30.2269 -97.6758 176° South 166 191 1,100 -571 Descending Houston Center
Fri 04:44:00 PM 30.1945 -97.6699 221° Southwest  Level Estimated
Fri 04:51:00 PM 30.1945 -97.6699 221° Southwest  Level Estimated

Login

Don't have an account? Register now (free) for customized features, flight alerts, and more!